Flight Track Log - Related Links

Times and Time Zones

All times are in EDT time to prevent confusion due to time zone crossing. See the N247GC flight status page for this flight to view local times or setup timezone preferences in your user account.

Time Position Orientation Groundspeed Altitude Reporting Facility
EDT Latitude Longitude Course Direction KTS MPH feet Rate Location/Type
Sat 03:08:19 PM 37.2394 -76.7475 245° Southwest 99 114 1,200  Level Washington Center
Sat 03:09:02 PM 37.2308 -76.7708 245° Southwest 96 110 1,900 1,107 Climbing Washington Center
Sat 03:10:02 PM 37.2369 -76.8022 284° West 122 140 3,100 957 Climbing Washington Center
Sat 03:11:45 PM 37.3000 -76.7833 13° North 149 171 4,500 810 Climbing Potomac TRACON
Sat 03:12:45 PM 37.3500 -76.7500 28° Northeast 165 190 5,300 893 Climbing Potomac TRACON
Sat 03:13:46 PM 37.4000 -76.7333 15° North 173 199 6,300 850 Climbing Potomac TRACON
Sat 03:14:45 PM 37.4333 -76.7000 38° Northeast 175 201 7,000 400 Climbing Potomac TRACON
Sat 03:15:46 PM 37.4833 -76.6667 28° Northeast 203 234 7,100 50 Climbing Potomac TRACON
Sat 03:16:46 PM 37.5333 -76.6500 15° North 214 246 7,100 -150 Level Potomac TRACON
Sat 03:17:46 PM 37.6000 -76.6500 360° North 200 230 6,800 -500 Descending Potomac TRACON
Sat 03:18:46 PM 37.6500 -76.6500 360° North 215 247 6,100 -600 Descending Potomac TRACON
Sat 03:19:46 PM 37.7167 -76.6667 349° North 215 247 5,600 -450 Descending Potomac TRACON
Sat 03:20:46 PM 37.7667 -76.6833 345° North 217 250 5,200 -264 Descending Potomac TRACON
Sat 03:21:17 PM 37.8011 -76.6903 351° North 217 250 5,200 -65 Level Washington Center
Sat 03:22:18 PM 37.8575 -76.6833 North 208 239 5,100 -49 Descending Washington Center
Sat 03:23:19 PM 37.9181 -76.6736 North 210 242 5,100  Level Washington Center
Sat 03:24:20 PM 37.9725 -76.6428 24° Northeast 215 247 5,100  Level Washington Center
Sat 03:25:21 PM 38.0269 -76.6119 24° Northeast 213 245 5,100  Level Washington Center
Sat 03:26:15 PM 38.0772 -76.5836 24° Northeast 213 245 5,100  Level Washington Center
Sat 03:27:16 PM 38.1297 -76.5525 25° Northeast 213 245 5,100  Level Washington Center
Sat 03:28:17 PM 38.1883 -76.5269 19° North 209 241 5,100  Level Washington Center
Sat 03:29:17 PM 38.2428 -76.4986 22° Northeast 207 238 5,100  Level Washington Center
Sat 03:30:18 PM 38.2950 -76.4728 21° North 208 239 5,100  Level Washington Center
Sat 03:31:19 PM 38.3494 -76.4522 16° North 207 238 5,100  Level Washington Center
Sat 03:32:19 PM 38.4058 -76.4289 18° North 208 239 5,100  Level Washington Center
Sat 03:33:20 PM 38.4622 -76.4111 14° North 210 242 5,100 -35 Level Washington Center
Sat 03:35:11 PM 38.5667 -76.3667 18° North 205 236 5,000 -35 Descending Potomac TRACON
Sat 03:36:11 PM 38.6167 -76.3500 15° North 202 232 5,000  Level Potomac TRACON
Sat 03:37:11 PM 38.6833 -76.3333 11° North 202 232 5,000 -50 Level Potomac TRACON
Sat 03:38:11 PM 38.7333 -76.3333 360° North 200 230 4,900 -250 Descending Potomac TRACON
Sat 03:39:11 PM 38.7833 -76.3500 345° North 210 242 4,500 -450 Descending Potomac TRACON
Sat 03:40:11 PM 38.8500 -76.3500 360° North 212 244 4,000 -250 Descending Potomac TRACON
Sat 03:41:11 PM 38.9000 -76.3500 360° North 202 232 4,000 -50 Level Potomac TRACON
Sat 03:42:11 PM 38.9667 -76.3500 360° North 190 219 3,900 -300 Descending Potomac TRACON
Sat 03:43:11 PM 39.0167 -76.3667 345° North 205 236 3,400 -450 Descending Potomac TRACON
Sat 03:44:11 PM 39.0667 -76.3667 360° North 206 237 3,000 -450 Descending Potomac TRACON
Sat 03:45:11 PM 39.1333 -76.3667 360° North 201 231 2,500 -500 Descending Potomac TRACON
Sat 03:46:11 PM 39.1833 -76.3667 360° North 200 230 2,000 -417 Descending Potomac TRACON
Sat 03:47:06 PM 39.2333 -76.3833 346° North 190 219 1,700 -198 Descending Potomac TRACON
Sat 03:48:12 PM 39.2833 -76.4000 346° North 174 200 1,600 -50 Descending Potomac TRACON
Sat 03:49:06 PM 39.3167 -76.4333 322° Northwest 148 170 1,600  Level Potomac TRACON
Sat 03:50:12 PM 39.3333 -76.4667 303° West 125 144 1,600 -450 Level Potomac TRACON
Sat 03:51:06 PM 39.3333 -76.4333 90° East 118 136 700 -1,000 Descending Potomac TRACON
Sat 03:53:00 PM 39.3257 -76.4138 123° Southeast  Level Estimated

Login

Don't have an account? Register now (free) for customized features, flight alerts, and more!